createdAt,value
2023-05-15T00:01:27.160Z,6.57
2023-05-15T00:03:55.254Z,6.50
2023-05-15T00:06:22.147Z,7.03
2023-05-15T00:08:48.872Z,7.30
2023-05-15T00:11:15.804Z,6.20
2023-05-15T00:13:42.445Z,6.78
2023-05-15T00:16:09.611Z,6.68
2023-05-15T00:18:36.541Z,6.72
2023-05-15T00:21:03.394Z,7.72
2023-05-15T00:23:30.094Z,7.60
2023-05-15T00:25:56.792Z,7.10
2023-05-15T00:28:23.481Z,7.50
2023-05-15T00:30:50.158Z,6.80
2023-05-15T00:33:17.000Z,7.15
2023-05-15T00:35:43.843Z,7.00
2023-05-15T00:38:10.903Z,7.22
2023-05-15T00:40:38.132Z,7.55
2023-05-15T00:43:05.140Z,7.18
2023-05-15T00:45:31.819Z,6.82
2023-05-15T00:47:59.250Z,7.35
2023-05-15T00:50:25.989Z,7.13
2023-05-15T00:52:52.672Z,7.43
2023-05-15T00:55:19.665Z,7.22
2023-05-15T00:57:46.390Z,7.07
2023-05-15T01:00:15.940Z,6.22
2023-05-15T01:02:42.721Z,6.05
2023-05-15T01:05:09.855Z,6.68
2023-05-15T01:07:41.500Z,6.40
2023-05-15T01:10:08.390Z,7.15
2023-05-15T01:12:35.094Z,6.68
2023-05-15T01:15:01.814Z,6.43
2023-05-15T01:17:28.539Z,6.60
2023-05-15T01:19:55.683Z,6.80
2023-05-15T01:22:48.693Z,6.68
2023-05-15T01:25:43.279Z,7.65
2023-05-15T01:28:10.029Z,8.52
2023-05-15T01:30:37.910Z,8.05
2023-05-15T01:33:04.609Z,7.50
2023-05-15T01:35:39.899Z,6.90
2023-05-15T01:38:46.989Z,7.22
2023-05-15T01:41:36.146Z,8.05
2023-05-15T01:44:07.390Z,8.25
2023-05-15T01:46:38.135Z,8.80
2023-05-15T01:49:04.918Z,7.82
2023-05-15T01:51:31.613Z,7.82
2023-05-15T01:53:59.525Z,7.70
2023-05-15T01:56:26.364Z,7.68
2023-05-15T01:58:53.166Z,8.50
2023-05-15T02:01:19.882Z,8.68
2023-05-15T02:03:46.970Z,7.70
2023-05-15T02:06:14.204Z,7.75
2023-05-15T02:08:41.549Z,7.95
2023-05-15T02:11:08.432Z,7.40
2023-05-15T02:13:35.288Z,7.45
2023-05-15T02:16:02.042Z,7.55
2023-05-15T02:18:29.220Z,7.75
2023-05-15T02:23:25.738Z,7.45
2023-05-15T02:25:55.645Z,7.75
2023-05-15T02:28:31.229Z,9.13
2023-05-15T02:31:04.106Z,8.73
2023-05-15T02:33:46.126Z,7.43
2023-05-15T02:36:15.398Z,7.63
2023-05-15T02:38:48.631Z,7.70
2023-05-15T02:41:15.648Z,8.50
2023-05-15T02:43:42.638Z,7.85
2023-05-15T02:46:09.392Z,7.63
2023-05-15T02:48:36.316Z,7.90
2023-05-15T02:51:03.121Z,7.25
2023-05-15T02:53:29.893Z,7.20
2023-05-15T02:55:56.593Z,6.80
2023-05-15T02:58:23.262Z,7.00
2023-05-15T03:00:50.031Z,6.68
2023-05-15T03:03:16.829Z,6.70
2023-05-15T03:05:43.564Z,7.45
2023-05-15T03:08:10.449Z,6.07
2023-05-15T03:10:37.190Z,6.47
2023-05-15T03:13:03.930Z,5.80
2023-05-15T03:15:30.640Z,6.40
2023-05-15T03:17:57.906Z,6.32
2023-05-15T03:20:25.669Z,5.70
2023-05-15T03:22:52.444Z,5.85
2023-05-15T03:25:19.152Z,6.13
2023-05-15T03:27:45.874Z,5.25
2023-05-15T03:30:12.756Z,5.00
2023-05-15T03:32:39.531Z,5.60
2023-05-15T03:35:06.572Z,4.90
2023-05-15T03:37:33.338Z,5.57
2023-05-15T03:40:00.161Z,6.53
2023-05-15T03:42:28.087Z,5.25
2023-05-15T03:44:56.276Z,5.28
2023-05-15T03:47:23.489Z,5.32
2023-05-15T03:49:50.436Z,5.15
2023-05-15T03:52:17.168Z,5.38
2023-05-15T03:54:43.902Z,5.30
2023-05-15T03:57:10.771Z,5.63
2023-05-15T03:59:37.543Z,5.40
2023-05-15T04:02:05.635Z,5.10
2023-05-15T04:04:32.815Z,5.22
2023-05-15T04:06:59.894Z,5.78
2023-05-15T04:09:26.675Z,5.05
2023-05-15T04:11:53.398Z,5.70
2023-05-15T04:14:20.104Z,4.97
2023-05-15T04:16:46.814Z,6.28
2023-05-15T04:19:14.181Z,5.82
2023-05-15T04:21:40.937Z,6.03
2023-05-15T04:24:08.564Z,5.90
2023-05-15T04:26:35.380Z,5.85
2023-05-15T04:29:04.398Z,5.18
2023-05-15T04:31:31.954Z,6.05
2023-05-15T04:33:58.886Z,5.68
2023-05-15T04:36:25.799Z,5.60
2023-05-15T04:38:52.658Z,5.85
2023-05-15T04:41:19.471Z,6.13
2023-05-15T04:43:46.625Z,5.72
2023-05-15T04:46:13.518Z,5.25
2023-05-15T04:48:40.223Z,5.10
2023-05-15T04:51:07.725Z,5.50
2023-05-15T04:53:34.524Z,4.70
2023-05-15T04:56:01.290Z,5.10
2023-05-15T04:58:28.079Z,4.90
2023-05-15T05:00:54.906Z,4.32
2023-05-15T05:03:21.679Z,5.20
2023-05-15T05:05:48.458Z,5.13
2023-05-15T05:08:15.180Z,5.25
2023-05-15T05:10:41.895Z,5.35
2023-05-15T05:13:08.617Z,4.97
2023-05-15T05:15:35.484Z,5.60
2023-05-15T05:18:02.317Z,5.05
2023-05-15T05:20:29.099Z,5.28
2023-05-15T05:22:55.814Z,5.35
2023-05-15T05:25:22.896Z,5.50
2023-05-15T05:27:49.700Z,5.70
2023-05-15T05:30:16.549Z,6.15
2023-05-15T05:32:43.420Z,5.68
2023-05-15T05:35:10.223Z,5.15
2023-05-15T05:37:38.725Z,6.05
2023-05-15T05:40:08.858Z,6.55
2023-05-15T05:42:35.713Z,6.10
2023-05-15T05:45:02.456Z,5.97
2023-05-15T05:47:29.253Z,6.05
2023-05-15T05:49:56.042Z,6.57
2023-05-15T05:52:22.808Z,6.35
2023-05-15T05:54:49.645Z,6.32
2023-05-15T05:57:16.417Z,6.68
2023-05-15T05:59:43.615Z,6.53
2023-05-15T06:02:11.689Z,6.60
2023-05-15T06:04:38.874Z,6.75
2023-05-15T06:07:05.687Z,5.88
2023-05-15T06:09:32.821Z,6.97
2023-05-15T06:12:01.036Z,7.47
2023-05-15T06:14:27.752Z,7.60
2023-05-15T06:16:54.526Z,6.15
2023-05-15T06:19:22.229Z,6.55
2023-05-15T06:21:49.082Z,5.93
2023-05-15T06:24:15.782Z,5.70
2023-05-15T06:26:42.544Z,6.82
2023-05-15T06:29:09.323Z,5.78
2023-05-15T06:31:35.978Z,5.50
2023-05-15T06:34:03.299Z,6.00
2023-05-15T06:36:30.356Z,5.88
2023-05-15T06:38:57.098Z,6.43
2023-05-15T06:41:23.844Z,5.38
2023-05-15T06:43:50.658Z,5.57
2023-05-15T06:46:19.238Z,5.45
2023-05-15T06:48:47.271Z,5.22
2023-05-15T06:51:14.208Z,5.68
2023-05-15T06:53:41.404Z,6.85
2023-05-15T06:56:08.488Z,16.05
2023-05-15T06:58:35.513Z,9.77
2023-05-15T07:01:04.122Z,5.97
2023-05-15T07:03:31.000Z,4.70
2023-05-15T07:05:58.033Z,5.43
2023-05-15T07:08:25.027Z,6.22
2023-05-15T07:10:51.950Z,5.32
2023-05-15T07:13:19.876Z,4.53
2023-05-15T07:15:50.025Z,4.57
2023-05-15T07:18:18.240Z,4.82
2023-05-15T07:20:46.294Z,4.13
2023-05-15T07:23:14.239Z,4.03
2023-05-15T07:25:41.184Z,4.35
2023-05-15T07:28:08.011Z,4.00
2023-05-15T07:30:35.178Z,4.40
2023-05-15T07:33:02.010Z,4.20
2023-05-15T07:35:29.239Z,3.95
2023-05-15T07:37:56.298Z,4.43
2023-05-15T07:40:23.236Z,4.00
2023-05-15T07:42:50.101Z,4.20
2023-05-15T07:45:17.073Z,4.80
2023-05-15T07:47:47.428Z,4.40
2023-05-15T07:50:14.518Z,4.45
2023-05-15T07:52:42.359Z,5.45
2023-05-15T07:55:10.125Z,8.23
2023-05-15T07:57:37.365Z,3.67
2023-05-15T08:00:10.379Z,4.07
2023-05-15T08:02:37.645Z,3.80
2023-05-15T08:05:05.523Z,4.00
2023-05-15T08:07:35.014Z,3.88
2023-05-15T08:10:01.986Z,4.25
2023-05-15T08:12:28.793Z,4.32
2023-05-15T08:14:55.951Z,3.67
2023-05-15T08:17:23.502Z,3.40
2023-05-15T08:19:50.289Z,3.67
2023-05-15T08:22:17.194Z,3.15
2023-05-15T08:24:45.040Z,3.33
2023-05-15T08:27:14.745Z,3.92
2023-05-15T08:29:41.688Z,2.95
2023-05-15T08:32:09.187Z,2.80
2023-05-15T08:34:36.058Z,3.75
2023-05-15T08:37:05.261Z,3.17
2023-05-15T08:39:32.025Z,3.40
2023-05-15T08:42:15.608Z,3.20
2023-05-15T08:44:42.338Z,2.38
2023-05-15T08:47:09.361Z,2.20
2023-05-15T08:49:46.319Z,3.20
2023-05-15T08:52:13.048Z,2.55
2023-05-15T08:54:40.660Z,2.75
2023-05-15T08:57:07.677Z,2.60
2023-05-15T08:59:34.495Z,3.00
2023-05-15T09:02:01.499Z,3.22
2023-05-15T09:04:44.483Z,2.80
2023-05-15T09:07:12.017Z,2.60
2023-05-15T09:09:39.160Z,2.85
2023-05-15T09:12:07.540Z,2.90
2023-05-15T09:14:34.236Z,3.10
2023-05-15T09:17:01.099Z,2.70
2023-05-15T09:19:28.325Z,3.50
2023-05-15T09:21:55.337Z,2.97
2023-05-15T09:24:26.774Z,3.45
2023-05-15T09:27:09.069Z,2.92
2023-05-15T09:29:38.215Z,2.97
2023-05-15T09:32:13.115Z,2.85
2023-05-15T09:34:44.652Z,3.03
2023-05-15T09:37:13.714Z,2.50
2023-05-15T09:39:42.748Z,3.20
2023-05-15T09:42:11.265Z,3.10
2023-05-15T09:44:44.322Z,3.53
2023-05-15T09:47:16.949Z,2.70
2023-05-15T09:52:11.192Z,2.50
2023-05-15T09:54:40.590Z,2.78
2023-05-15T09:57:08.719Z,2.50
2023-05-15T09:59:35.725Z,2.63
2023-05-15T10:02:02.519Z,2.70
2023-05-15T10:04:35.888Z,2.65
2023-05-15T10:07:02.714Z,2.95
2023-05-15T10:09:32.806Z,2.53
2023-05-15T10:11:59.700Z,2.72
2023-05-15T10:14:27.153Z,2.50
2023-05-15T10:16:54.421Z,3.05
2023-05-15T10:19:22.440Z,3.20
2023-05-15T10:21:49.405Z,2.88
2023-05-15T10:24:16.322Z,3.15
2023-05-15T10:26:43.357Z,2.70
2023-05-15T10:29:14.812Z,2.60
2023-05-15T10:31:42.175Z,2.63
2023-05-15T10:34:10.366Z,2.30
2023-05-15T10:36:38.204Z,2.38
2023-05-15T10:39:06.264Z,2.55
2023-05-15T10:41:34.053Z,2.30
2023-05-15T10:44:01.577Z,1.80
2023-05-15T10:46:30.743Z,2.13
2023-05-15T10:48:58.303Z,2.50
2023-05-15T10:51:27.774Z,2.80
2023-05-15T10:53:55.554Z,2.40
2023-05-15T10:56:33.226Z,2.40
2023-05-15T10:59:07.457Z,2.08
2023-05-15T11:01:36.117Z,2.28
2023-05-15T11:04:13.444Z,2.10
2023-05-15T11:06:45.112Z,2.30
2023-05-15T11:09:27.989Z,3.03
2023-05-15T11:12:00.380Z,2.47
2023-05-15T11:14:28.813Z,1.95
2023-05-15T11:16:55.756Z,1.98
2023-05-15T11:19:23.429Z,2.10
2023-05-15T11:22:09.863Z,2.63
2023-05-15T11:24:59.549Z,2.20
2023-05-15T11:27:32.640Z,2.10
2023-05-15T11:30:18.552Z,2.40
2023-05-15T11:32:51.203Z,2.42
2023-05-15T11:35:39.495Z,2.28
2023-05-15T11:38:20.410Z,2.22
2023-05-15T11:40:52.945Z,1.95
2023-05-15T11:43:28.722Z,2.30
2023-05-15T11:46:09.495Z,2.15
2023-05-15T11:48:41.730Z,2.30
2023-05-15T11:51:19.771Z,2.03
2023-05-15T11:53:46.958Z,2.67
2023-05-15T11:56:18.898Z,2.78
2023-05-15T11:58:49.182Z,2.60
2023-05-15T12:01:16.691Z,2.25
2023-05-15T12:03:44.537Z,2.35
2023-05-15T12:06:12.234Z,2.50
2023-05-15T12:08:42.278Z,2.13
2023-05-15T12:11:09.788Z,2.00
2023-05-15T12:13:36.881Z,2.03
2023-05-15T12:16:04.643Z,1.95
2023-05-15T12:18:32.884Z,2.15
2023-05-15T12:21:00.328Z,1.98
2023-05-15T12:23:28.851Z,2.20
2023-05-15T12:25:59.475Z,1.90
2023-05-15T12:28:27.387Z,1.63
2023-05-15T12:30:54.786Z,1.50
2023-05-15T12:33:22.083Z,2.08
2023-05-15T12:35:58.056Z,2.00
2023-05-15T12:38:27.598Z,2.13
2023-05-15T12:40:54.913Z,2.03
2023-05-15T12:43:25.569Z,2.25
2023-05-15T12:45:56.423Z,4.57
2023-05-15T12:48:23.987Z,1.60
2023-05-15T12:50:51.894Z,1.73
2023-05-15T12:53:19.099Z,1.58
2023-05-15T12:55:47.180Z,1.80
2023-05-15T12:58:16.017Z,1.67
2023-05-15T13:00:43.922Z,1.65
2023-05-15T13:03:11.564Z,1.67
2023-05-15T13:05:38.680Z,2.08
2023-05-15T13:08:07.535Z,1.88
2023-05-15T13:10:36.363Z,1.85
2023-05-15T13:13:03.110Z,2.70
2023-05-15T13:15:40.591Z,2.70
2023-05-15T13:18:09.525Z,2.10
2023-05-15T13:20:43.257Z,2.20
2023-05-15T13:23:11.171Z,2.30
2023-05-15T13:25:38.027Z,2.50
2023-05-15T13:28:06.249Z,2.25
2023-05-15T13:30:39.269Z,2.92
2023-05-15T13:33:06.445Z,2.42
2023-05-15T13:35:33.398Z,2.70
2023-05-15T13:38:00.261Z,2.47
2023-05-15T13:40:32.656Z,2.47
2023-05-15T13:42:59.611Z,2.08
2023-05-15T13:45:29.723Z,2.22
2023-05-15T13:47:56.640Z,2.20
2023-05-15T13:50:26.991Z,3.90
2023-05-15T13:52:54.658Z,2.65
2023-05-15T13:55:22.939Z,1.85
2023-05-15T13:57:50.232Z,1.92
2023-05-15T14:00:17.585Z,2.20
2023-05-15T14:02:44.826Z,2.25
2023-05-15T14:05:13.362Z,2.35
2023-05-15T14:07:40.714Z,2.20
2023-05-15T14:10:08.348Z,2.55
2023-05-15T14:12:37.202Z,2.13
2023-05-15T14:15:04.558Z,2.13
2023-05-15T14:17:31.359Z,2.38
2023-05-15T14:19:58.211Z,2.13
2023-05-15T14:22:25.402Z,2.38
2023-05-15T14:24:53.072Z,2.08
2023-05-15T14:27:20.359Z,2.42
2023-05-15T14:29:49.217Z,2.08
2023-05-15T14:32:16.837Z,1.88
2023-05-15T14:34:44.071Z,2.30
2023-05-15T14:37:10.948Z,1.83
2023-05-15T14:39:38.006Z,1.85
2023-05-15T14:42:05.287Z,1.95
2023-05-15T14:44:32.500Z,2.25
2023-05-15T14:47:07.078Z,2.05
2023-05-15T14:49:34.223Z,2.30
2023-05-15T14:52:00.953Z,1.98
2023-05-15T14:54:27.658Z,2.08
2023-05-15T14:56:56.343Z,2.30
2023-05-15T14:59:25.273Z,2.55
2023-05-15T15:01:52.040Z,2.55
2023-05-15T15:04:18.909Z,3.80
2023-05-15T15:06:47.565Z,2.38
2023-05-15T15:09:14.393Z,2.72
2023-05-15T15:11:41.184Z,2.55
2023-05-15T15:14:07.890Z,2.60
2023-05-15T15:16:34.670Z,3.55
2023-05-15T15:19:01.500Z,3.53
2023-05-15T15:21:28.272Z,4.57
2023-05-15T15:23:55.502Z,4.70
2023-05-15T15:26:22.678Z,5.25
2023-05-15T15:28:49.865Z,4.35
2023-05-15T15:31:16.812Z,4.75
2023-05-15T15:33:43.656Z,5.05
2023-05-15T15:36:10.580Z,5.43
2023-05-15T15:38:37.378Z,5.88
2023-05-15T15:41:05.680Z,6.00
2023-05-15T15:43:32.428Z,5.90
2023-05-15T15:45:59.177Z,6.90
2023-05-15T15:48:26.241Z,8.35
2023-05-15T15:50:53.586Z,8.05
2023-05-15T15:53:21.879Z,8.30
2023-05-15T15:55:48.960Z,7.95
2023-05-15T15:58:16.102Z,7.38
2023-05-15T16:00:43.031Z,8.15
2023-05-15T16:03:09.868Z,7.47
2023-05-15T16:05:36.750Z,7.90
2023-05-15T16:08:03.601Z,8.75
2023-05-15T16:10:30.510Z,7.95
2023-05-15T16:12:57.557Z,7.95
2023-05-15T16:15:24.533Z,7.95
2023-05-15T16:17:52.976Z,7.97
2023-05-15T16:20:20.475Z,8.30
2023-05-15T16:22:47.227Z,8.00
2023-05-15T16:25:13.944Z,6.97
2023-05-15T16:27:40.688Z,6.75
2023-05-15T16:30:09.378Z,6.38
2023-05-15T16:32:36.391Z,6.75
2023-05-15T16:35:03.557Z,7.40
2023-05-15T16:37:30.375Z,6.18
2023-05-15T16:39:57.116Z,6.75
2023-05-15T16:42:23.780Z,5.18
2023-05-15T16:44:50.548Z,5.60
2023-05-15T16:47:17.278Z,5.40
2023-05-15T16:49:45.248Z,4.93
2023-05-15T16:52:13.093Z,6.28
2023-05-15T16:54:41.890Z,5.68
2023-05-15T16:57:08.623Z,5.53
2023-05-15T16:59:35.405Z,5.72
2023-05-15T17:02:02.236Z,5.18
2023-05-15T17:04:33.067Z,4.35
2023-05-15T17:07:00.190Z,4.57
2023-05-15T17:09:26.960Z,4.20
2023-05-15T17:11:53.720Z,3.58
2023-05-15T17:14:21.407Z,3.53
2023-05-15T17:16:48.314Z,3.88
2023-05-15T17:19:15.483Z,3.05
2023-05-15T17:21:42.328Z,3.80
2023-05-15T17:24:09.090Z,3.53
2023-05-15T17:26:35.804Z,3.90
2023-05-15T17:29:02.560Z,4.03
2023-05-15T17:31:29.795Z,3.67
2023-05-15T17:33:56.637Z,3.83
2023-05-15T17:36:23.442Z,3.47
2023-05-15T17:38:50.387Z,3.50
2023-05-15T17:41:17.237Z,3.33
2023-05-15T17:43:48.247Z,2.80
2023-05-15T17:46:15.042Z,3.22
2023-05-15T17:48:41.840Z,3.47
2023-05-15T17:51:08.652Z,3.10
2023-05-15T17:53:35.421Z,2.75
2023-05-15T17:56:03.657Z,2.75
2023-05-15T17:58:30.568Z,2.80
2023-05-15T18:00:57.372Z,3.13
2023-05-15T18:03:24.374Z,3.10
2023-05-15T18:05:52.310Z,3.22
2023-05-15T18:08:19.103Z,3.10
2023-05-15T18:10:46.300Z,3.78
2023-05-15T18:13:13.265Z,3.50
2023-05-15T18:15:40.109Z,3.42
2023-05-15T18:18:06.854Z,3.20
2023-05-15T18:20:33.710Z,3.80
2023-05-15T18:23:00.444Z,3.67
2023-05-15T18:25:27.289Z,3.63
2023-05-15T18:27:54.290Z,4.15
2023-05-15T18:30:21.169Z,3.97
2023-05-15T18:32:48.064Z,4.53
2023-05-15T18:35:14.818Z,4.35
2023-05-15T18:37:41.621Z,4.60
2023-05-15T18:40:09.156Z,4.25
2023-05-15T18:42:36.026Z,4.60
2023-05-15T18:45:02.834Z,5.25
2023-05-15T18:47:29.602Z,4.07
2023-05-15T18:49:57.115Z,4.82
2023-05-15T18:52:24.058Z,5.50
2023-05-15T18:54:52.605Z,5.15
2023-05-15T18:57:19.382Z,4.38
2023-05-15T18:59:47.874Z,4.88
2023-05-15T19:02:14.805Z,5.00
2023-05-15T19:04:41.478Z,4.57
2023-05-15T19:07:08.207Z,5.22
2023-05-15T19:09:35.541Z,4.82
2023-05-15T19:12:03.165Z,6.32
2023-05-15T19:14:29.996Z,5.65
2023-05-15T19:16:56.788Z,4.97
2023-05-15T19:19:23.810Z,4.93
2023-05-15T19:21:52.025Z,5.55
2023-05-15T19:24:19.351Z,5.05
2023-05-15T19:26:46.154Z,4.72
2023-05-15T19:29:12.866Z,5.28
2023-05-15T19:31:39.725Z,5.30
2023-05-15T19:34:06.555Z,5.22
2023-05-15T19:36:33.362Z,4.72
2023-05-15T19:39:00.082Z,4.78
2023-05-15T19:41:27.052Z,5.25
2023-05-15T19:43:53.775Z,5.60
2023-05-15T19:46:20.745Z,5.47
2023-05-15T19:48:47.668Z,5.40
2023-05-15T19:51:14.966Z,5.07
2023-05-15T19:53:42.000Z,4.95
2023-05-15T19:56:09.061Z,5.20
2023-05-15T19:58:35.990Z,6.40
2023-05-15T20:01:02.848Z,5.47
2023-05-15T20:03:33.624Z,5.15
2023-05-15T20:06:01.640Z,5.53
2023-05-15T20:08:29.977Z,6.35
2023-05-15T20:10:57.288Z,6.00
2023-05-15T20:13:24.176Z,6.05
2023-05-15T20:15:57.140Z,6.40
2023-05-15T20:18:25.150Z,6.50
2023-05-15T20:20:54.632Z,7.75
2023-05-15T20:23:22.079Z,7.00
2023-05-15T20:25:49.890Z,8.18
2023-05-15T20:28:17.962Z,7.38
2023-05-15T20:30:47.821Z,7.15
2023-05-15T20:33:14.691Z,7.70
2023-05-15T20:35:42.872Z,7.40
2023-05-15T20:38:12.748Z,7.35
2023-05-15T20:40:39.687Z,7.57
2023-05-15T20:43:06.515Z,7.82
2023-05-15T20:45:33.894Z,7.70
2023-05-15T20:48:01.208Z,7.72
2023-05-15T20:50:28.456Z,8.85
2023-05-15T20:52:55.817Z,6.80
2023-05-15T20:55:22.792Z,7.63
2023-05-15T20:57:49.698Z,7.53
2023-05-15T21:00:17.476Z,7.10
2023-05-15T21:02:44.781Z,7.72
2023-05-15T21:05:12.137Z,7.55
2023-05-15T21:07:38.896Z,7.55
2023-05-15T21:10:06.191Z,7.95
2023-05-15T21:12:34.201Z,7.88
2023-05-15T21:15:01.977Z,7.95
2023-05-15T21:17:28.930Z,7.32
2023-05-15T21:19:57.714Z,7.82
2023-05-15T21:22:24.927Z,7.47
2023-05-15T21:24:51.854Z,7.40
2023-05-15T21:27:18.662Z,8.50
2023-05-15T21:29:45.479Z,8.55
2023-05-15T21:32:12.184Z,8.30
2023-05-15T21:34:39.403Z,9.25
2023-05-15T21:37:06.136Z,8.38
2023-05-15T21:39:32.836Z,8.35
2023-05-15T21:41:59.566Z,9.23
2023-05-15T21:44:26.348Z,8.60
2023-05-15T21:46:53.415Z,8.40
2023-05-15T21:49:20.167Z,8.68
2023-05-15T21:51:46.899Z,8.60
2023-05-15T21:54:13.675Z,8.80
2023-05-15T21:56:41.285Z,9.63
2023-05-15T21:59:08.292Z,9.40
2023-05-15T22:01:36.292Z,10.27
2023-05-15T22:04:03.200Z,9.38
2023-05-15T22:06:30.009Z,9.90
2023-05-15T22:08:57.643Z,8.48
2023-05-15T22:11:24.384Z,9.35
2023-05-15T22:13:51.190Z,9.50
2023-05-15T22:16:19.505Z,9.88
2023-05-15T22:18:47.746Z,10.07
2023-05-15T22:21:15.277Z,9.00
2023-05-15T22:23:41.989Z,9.43
2023-05-15T22:26:08.706Z,10.30
2023-05-15T22:28:35.515Z,9.68
2023-05-15T22:31:03.148Z,9.50
2023-05-15T22:33:29.971Z,9.50
2023-05-15T22:35:56.694Z,9.90
2023-05-15T22:38:23.420Z,10.30
2023-05-15T22:40:53.626Z,9.75
2023-05-15T22:43:21.566Z,9.73
2023-05-15T22:45:48.405Z,10.05
2023-05-15T22:48:15.594Z,10.55
2023-05-15T22:50:43.791Z,10.52
2023-05-15T22:53:10.574Z,10.10
2023-05-15T22:55:37.493Z,10.52
2023-05-15T22:58:04.293Z,10.10
2023-05-15T23:00:31.348Z,9.98
2023-05-15T23:02:58.362Z,10.75
2023-05-15T23:05:25.438Z,11.10
2023-05-15T23:07:52.849Z,10.77
2023-05-15T23:10:19.726Z,10.82
2023-05-15T23:12:46.832Z,10.40
2023-05-15T23:15:13.607Z,10.75
2023-05-15T23:17:40.689Z,10.38
2023-05-15T23:20:10.567Z,11.43
2023-05-15T23:22:37.526Z,10.45
2023-05-15T23:25:04.724Z,11.10
2023-05-15T23:27:31.508Z,10.70
2023-05-15T23:29:58.219Z,11.25
2023-05-15T23:32:24.936Z,10.75
2023-05-15T23:34:52.260Z,13.50
2023-05-15T23:37:18.993Z,11.93
2023-05-15T23:39:45.748Z,12.18
2023-05-15T23:42:12.638Z,11.20
2023-05-15T23:44:39.450Z,11.45
2023-05-15T23:47:06.962Z,10.70
2023-05-15T23:49:33.963Z,11.23
2023-05-15T23:52:00.693Z,11.80
2023-05-15T23:54:28.168Z,11.88
2023-05-15T23:56:55.090Z,11.25
2023-05-15T23:59:21.851Z,12.00
